sensor_id;sensor_type;location;lat;lon;timestamp;temperature;humidity
22917;DHT22;11624;53.250;7.456;2022-11-15T00:00:54;13.12;60.22
22917;DHT22;11624;53.250;7.456;2022-11-15T00:03:41;13.12;60.08
22917;DHT22;11624;53.250;7.456;2022-11-15T00:06:27;13.00;60.80
22917;DHT22;11624;53.250;7.456;2022-11-15T00:09:15;13.06;60.44
22917;DHT22;11624;53.250;7.456;2022-11-15T00:12:02;13.07;60.47
22917;DHT22;11624;53.250;7.456;2022-11-15T00:14:48;13.04;60.46
22917;DHT22;11624;53.250;7.456;2022-11-15T00:17:35;13.07;60.39
22917;DHT22;11624;53.250;7.456;2022-11-15T00:20:22;13.10;60.22
22917;DHT22;11624;53.250;7.456;2022-11-15T00:23:09;13.19;59.83
22917;DHT22;11624;53.250;7.456;2022-11-15T00:25:57;13.17;59.67
22917;DHT22;11624;53.250;7.456;2022-11-15T00:28:44;13.11;59.73
22917;DHT22;11624;53.250;7.456;2022-11-15T00:31:31;13.09;59.68
22917;DHT22;11624;53.250;7.456;2022-11-15T00:34:18;13.02;59.83
22917;DHT22;11624;53.250;7.456;2022-11-15T00:37:05;12.89;60.06
22917;DHT22;11624;53.250;7.456;2022-11-15T00:39:52;12.82;60.44
22917;DHT22;11624;53.250;7.456;2022-11-15T00:42:41;12.84;60.29
22917;DHT22;11624;53.250;7.456;2022-11-15T00:45:28;12.80;60.32
22917;DHT22;11624;53.250;7.456;2022-11-15T00:48:14;12.85;60.06
22917;DHT22;11624;53.250;7.456;2022-11-15T00:51:01;12.81;59.98
22917;DHT22;11624;53.250;7.456;2022-11-15T00:53:48;12.80;60.01
22917;DHT22;11624;53.250;7.456;2022-11-15T00:56:35;12.70;60.41
22917;DHT22;11624;53.250;7.456;2022-11-15T00:59:24;12.66;60.41
22917;DHT22;11624;53.250;7.456;2022-11-15T01:02:11;12.57;60.78
22917;DHT22;11624;53.250;7.456;2022-11-15T01:04:57;12.59;60.57
22917;DHT22;11624;53.250;7.456;2022-11-15T01:07:44;12.58;60.44
22917;DHT22;11624;53.250;7.456;2022-11-15T01:10:31;12.52;60.56
22917;DHT22;11624;53.250;7.456;2022-11-15T01:13:17;12.47;60.44
22917;DHT22;11624;53.250;7.456;2022-11-15T01:16:10;12.42;60.18
22917;DHT22;11624;53.250;7.456;2022-11-15T01:18:58;12.40;60.18
22917;DHT22;11624;53.250;7.456;2022-11-15T01:21:44;12.31;60.22
22917;DHT22;11624;53.250;7.456;2022-11-15T01:24:31;12.28;60.11
22917;DHT22;11624;53.250;7.456;2022-11-15T01:27:18;12.20;60.17
22917;DHT22;11624;53.250;7.456;2022-11-15T01:30:06;12.13;60.17
22917;DHT22;11624;53.250;7.456;2022-11-15T01:32:55;12.10;60.02
22917;DHT22;11624;53.250;7.456;2022-11-15T01:35:41;11.99;60.30
22917;DHT22;11624;53.250;7.456;2022-11-15T01:38:28;11.93;60.47
22917;DHT22;11624;53.250;7.456;2022-11-15T01:41:16;11.79;61.03
22917;DHT22;11624;53.250;7.456;2022-11-15T01:44:39;11.69;61.75
22917;DHT22;11624;53.250;7.456;2022-11-15T01:47:28;11.72;61.57
22917;DHT22;11624;53.250;7.456;2022-11-15T01:50:20;11.57;62.47
22917;DHT22;11624;53.250;7.456;2022-11-15T01:53:08;11.57;62.58
22917;DHT22;11624;53.250;7.456;2022-11-15T01:55:57;11.64;62.56
22917;DHT22;11624;53.250;7.456;2022-11-15T01:58:45;11.71;62.29
22917;DHT22;11624;53.250;7.456;2022-11-15T02:01:33;11.74;62.61
22917;DHT22;11624;53.250;7.456;2022-11-15T02:04:22;11.81;62.26
22917;DHT22;11624;53.250;7.456;2022-11-15T02:07:14;11.92;62.42
22917;DHT22;11624;53.250;7.456;2022-11-15T02:10:06;11.93;62.62
22917;DHT22;11624;53.250;7.456;2022-11-15T02:12:54;12.04;62.17
22917;DHT22;11624;53.250;7.456;2022-11-15T02:15:48;12.12;62.05
22917;DHT22;11624;53.250;7.456;2022-11-15T02:18:52;12.23;61.76
22917;DHT22;11624;53.250;7.456;2022-11-15T02:21:42;12.34;61.73
22917;DHT22;11624;53.250;7.456;2022-11-15T02:24:50;12.30;61.10
22917;DHT22;11624;53.250;7.456;2022-11-15T02:31:12;12.47;61.22
22917;DHT22;11624;53.250;7.456;2022-11-15T02:34:05;12.53;60.85
22917;DHT22;11624;53.250;7.456;2022-11-15T02:37:02;12.64;60.76
22917;DHT22;11624;53.250;7.456;2022-11-15T02:39:54;12.80;60.51
22917;DHT22;11624;53.250;7.456;2022-11-15T02:42:50;12.73;60.06
22917;DHT22;11624;53.250;7.456;2022-11-15T02:46:00;12.79;60.44
22917;DHT22;11624;53.250;7.456;2022-11-15T02:48:50;12.81;60.46
22917;DHT22;11624;53.250;7.456;2022-11-15T02:51:38;12.74;60.56
22917;DHT22;11624;53.250;7.456;2022-11-15T02:54:26;12.74;60.80
22917;DHT22;11624;53.250;7.456;2022-11-15T02:57:16;12.79;60.51
22917;DHT22;11624;53.250;7.456;2022-11-15T03:00:07;12.69;60.83
22917;DHT22;11624;53.250;7.456;2022-11-15T03:03:10;12.62;60.64
22917;DHT22;11624;53.250;7.456;2022-11-15T03:06:13;12.47;61.15
22917;DHT22;11624;53.250;7.456;2022-11-15T03:09:07;12.51;61.45
22917;DHT22;11624;53.250;7.456;2022-11-15T03:12:00;12.58;61.35
22917;DHT22;11624;53.250;7.456;2022-11-15T03:14:54;12.63;61.25
22917;DHT22;11624;53.250;7.456;2022-11-15T03:17:47;12.69;61.19
22917;DHT22;11624;53.250;7.456;2022-11-15T03:20:37;12.66;61.32
22917;DHT22;11624;53.250;7.456;2022-11-15T03:23:28;12.73;61.11
22917;DHT22;11624;53.250;7.456;2022-11-15T03:26:19;12.84;61.03
22917;DHT22;11624;53.250;7.456;2022-11-15T03:29:09;12.85;61.15
22917;DHT22;11624;53.250;7.456;2022-11-15T03:32:02;12.93;60.96
22917;DHT22;11624;53.250;7.456;2022-11-15T03:34:53;12.92;61.12
22917;DHT22;11624;53.250;7.456;2022-11-15T03:37:45;12.93;60.85
22917;DHT22;11624;53.250;7.456;2022-11-15T03:40:38;13.00;60.90
22917;DHT22;11624;53.250;7.456;2022-11-15T03:43:32;12.94;60.89
22917;DHT22;11624;53.250;7.456;2022-11-15T03:46:24;12.87;61.67
22917;DHT22;11624;53.250;7.456;2022-11-15T03:49:14;12.85;61.51
22917;DHT22;11624;53.250;7.456;2022-11-15T03:52:03;13.03;61.50
22917;DHT22;11624;53.250;7.456;2022-11-15T03:54:52;13.04;61.63
22917;DHT22;11624;53.250;7.456;2022-11-15T03:57:41;13.09;61.53
22917;DHT22;11624;53.250;7.456;2022-11-15T04:00:28;12.96;62.16
22917;DHT22;11624;53.250;7.456;2022-11-15T04:03:15;13.01;62.06
22917;DHT22;11624;53.250;7.456;2022-11-15T04:06:02;13.09;61.86
22917;DHT22;11624;53.250;7.456;2022-11-15T04:08:48;12.87;62.25
22917;DHT22;11624;53.250;7.456;2022-11-15T04:11:35;13.14;62.02
22917;DHT22;11624;53.250;7.456;2022-11-15T04:14:23;12.91;62.64
22917;DHT22;11624;53.250;7.456;2022-11-15T04:17:10;13.07;61.76
22917;DHT22;11624;53.250;7.456;2022-11-15T04:19:57;13.21;61.68
22917;DHT22;11624;53.250;7.456;2022-11-15T04:23:03;13.31;61.39
22917;DHT22;11624;53.250;7.456;2022-11-15T04:26:10;13.32;61.28
22917;DHT22;11624;53.250;7.456;2022-11-15T04:28:58;13.23;61.74
22917;DHT22;11624;53.250;7.456;2022-11-15T04:32:04;13.00;62.56
22917;DHT22;11624;53.250;7.456;2022-11-15T04:34:51;12.99;62.57
22917;DHT22;11624;53.250;7.456;2022-11-15T04:37:38;13.07;62.58
22917;DHT22;11624;53.250;7.456;2022-11-15T04:40:31;13.11;62.47
22917;DHT22;11624;53.250;7.456;2022-11-15T04:43:17;13.12;62.44
22917;DHT22;11624;53.250;7.456;2022-11-15T04:46:04;13.12;62.57
22917;DHT22;11624;53.250;7.456;2022-11-15T04:48:53;13.10;62.53
22917;DHT22;11624;53.250;7.456;2022-11-15T04:51:43;13.05;63.06
22917;DHT22;11624;53.250;7.456;2022-11-15T04:54:30;13.06;63.15
22917;DHT22;11624;53.250;7.456;2022-11-15T04:57:17;12.99;63.68
22917;DHT22;11624;53.250;7.456;2022-11-15T05:00:06;13.07;63.27
22917;DHT22;11624;53.250;7.456;2022-11-15T05:02:53;13.15;63.34
22917;DHT22;11624;53.250;7.456;2022-11-15T05:05:59;13.21;62.88
22917;DHT22;11624;53.250;7.456;2022-11-15T05:08:45;13.06;63.78
22917;DHT22;11624;53.250;7.456;2022-11-15T05:11:32;13.20;63.41
22917;DHT22;11624;53.250;7.456;2022-11-15T05:14:19;13.22;63.38
22917;DHT22;11624;53.250;7.456;2022-11-15T05:17:06;13.27;63.30
22917;DHT22;11624;53.250;7.456;2022-11-15T05:19:52;13.12;64.06
22917;DHT22;11624;53.250;7.456;2022-11-15T05:22:40;13.41;62.61
22917;DHT22;11624;53.250;7.456;2022-11-15T05:25:27;13.59;62.48
22917;DHT22;11624;53.250;7.456;2022-11-15T05:28:14;13.60;62.57
22917;DHT22;11624;53.250;7.456;2022-11-15T05:31:01;13.73;62.22
22917;DHT22;11624;53.250;7.456;2022-11-15T05:33:49;13.67;62.54
22917;DHT22;11624;53.250;7.456;2022-11-15T05:36:37;13.66;62.76
22917;DHT22;11624;53.250;7.456;2022-11-15T05:39:26;13.79;62.39
22917;DHT22;11624;53.250;7.456;2022-11-15T05:42:14;13.82;62.38
22917;DHT22;11624;53.250;7.456;2022-11-15T05:45:01;13.68;63.11
22917;DHT22;11624;53.250;7.456;2022-11-15T05:47:49;13.86;62.57
22917;DHT22;11624;53.250;7.456;2022-11-15T05:50:37;13.92;62.47
22917;DHT22;11624;53.250;7.456;2022-11-15T05:53:25;13.83;62.92
22917;DHT22;11624;53.250;7.456;2022-11-15T05:56:14;13.90;62.80
22917;DHT22;11624;53.250;7.456;2022-11-15T05:59:02;13.94;62.80
22917;DHT22;11624;53.250;7.456;2022-11-15T06:01:49;14.01;62.70
22917;DHT22;11624;53.250;7.456;2022-11-15T06:04:36;14.08;62.72
22917;DHT22;11624;53.250;7.456;2022-11-15T06:07:23;14.06;62.94
22917;DHT22;11624;53.250;7.456;2022-11-15T06:10:10;13.98;63.73
22917;DHT22;11624;53.250;7.456;2022-11-15T06:12:59;13.96;63.89
22917;DHT22;11624;53.250;7.456;2022-11-15T06:15:46;14.08;63.80
22917;DHT22;11624;53.250;7.456;2022-11-15T06:18:34;14.12;63.99
22917;DHT22;11624;53.250;7.456;2022-11-15T06:21:20;14.23;63.88
22917;DHT22;11624;53.250;7.456;2022-11-15T06:24:07;14.22;64.11
22917;DHT22;11624;53.250;7.456;2022-11-15T06:26:54;14.34;63.95
22917;DHT22;11624;53.250;7.456;2022-11-15T06:29:42;14.49;63.72
22917;DHT22;11624;53.250;7.456;2022-11-15T06:32:29;14.62;63.53
22917;DHT22;11624;53.250;7.456;2022-11-15T06:35:17;14.66;63.61
22917;DHT22;11624;53.250;7.456;2022-11-15T06:38:05;14.68;63.74
22917;DHT22;11624;53.250;7.456;2022-11-15T06:40:52;14.83;63.47
22917;DHT22;11624;53.250;7.456;2022-11-15T06:43:39;14.94;63.27
22917;DHT22;11624;53.250;7.456;2022-11-15T06:46:28;14.98;63.21
22917;DHT22;11624;53.250;7.456;2022-11-15T06:49:15;15.07;63.12
22917;DHT22;11624;53.250;7.456;2022-11-15T06:52:02;15.15;62.92
22917;DHT22;11624;53.250;7.456;2022-11-15T06:54:49;15.21;62.81
22917;DHT22;11624;53.250;7.456;2022-11-15T06:57:36;15.15;63.03
22917;DHT22;11624;53.250;7.456;2022-11-15T07:00:22;15.10;63.25
22917;DHT22;11624;53.250;7.456;2022-11-15T07:03:10;15.17;63.26
22917;DHT22;11624;53.250;7.456;2022-11-15T07:05:58;15.16;63.47
22917;DHT22;11624;53.250;7.456;2022-11-15T07:08:51;15.25;63.32
22917;DHT22;11624;53.250;7.456;2022-11-15T07:11:38;15.31;63.21
22917;DHT22;11624;53.250;7.456;2022-11-15T07:14:25;15.37;63.17
22917;DHT22;11624;53.250;7.456;2022-11-15T07:17:11;15.42;63.16
22917;DHT22;11624;53.250;7.456;2022-11-15T07:19:59;15.48;63.07
22917;DHT22;11624;53.250;7.456;2022-11-15T07:22:46;15.58;63.02
22917;DHT22;11624;53.250;7.456;2022-11-15T07:25:33;15.60;63.05
22917;DHT22;11624;53.250;7.456;2022-11-15T07:28:19;15.67;62.90
22917;DHT22;11624;53.250;7.456;2022-11-15T07:31:08;15.72;62.76
22917;DHT22;11624;53.250;7.456;2022-11-15T07:33:55;15.76;62.65
22917;DHT22;11624;53.250;7.456;2022-11-15T07:36:43;15.74;62.62
22917;DHT22;11624;53.250;7.456;2022-11-15T07:39:29;15.82;62.49
22917;DHT22;11624;53.250;7.456;2022-11-15T07:42:16;15.86;62.39
22917;DHT22;11624;53.250;7.456;2022-11-15T07:45:20;15.84;62.47
22917;DHT22;11624;53.250;7.456;2022-11-15T07:48:07;15.91;62.31
22917;DHT22;11624;53.250;7.456;2022-11-15T07:50:54;15.98;62.15
22917;DHT22;11624;53.250;7.456;2022-11-15T07:53:42;16.02;61.86
22917;DHT22;11624;53.250;7.456;2022-11-15T07:56:29;16.00;62.03
22917;DHT22;11624;53.250;7.456;2022-11-15T07:59:16;16.03;62.02
22917;DHT22;11624;53.250;7.456;2022-11-15T08:02:03;16.00;62.08
22917;DHT22;11624;53.250;7.456;2022-11-15T08:04:50;16.10;61.91
22917;DHT22;11624;53.250;7.456;2022-11-15T08:07:37;16.15;61.77
22917;DHT22;11624;53.250;7.456;2022-11-15T08:10:26;16.20;61.70
22917;DHT22;11624;53.250;7.456;2022-11-15T08:13:14;16.21;61.70
22917;DHT22;11624;53.250;7.456;2022-11-15T08:16:02;16.27;61.57
22917;DHT22;11624;53.250;7.456;2022-11-15T08:18:51;16.32;61.52
22917;DHT22;11624;53.250;7.456;2022-11-15T08:21:37;16.31;61.52
22917;DHT22;11624;53.250;7.456;2022-11-15T08:24:24;16.35;61.44
22917;DHT22;11624;53.250;7.456;2022-11-15T08:27:13;16.39;61.38
22917;DHT22;11624;53.250;7.456;2022-11-15T08:30:02;16.40;61.40
22917;DHT22;11624;53.250;7.456;2022-11-15T08:32:49;16.36;61.47
22917;DHT22;11624;53.250;7.456;2022-11-15T08:35:37;16.41;61.45
22917;DHT22;11624;53.250;7.456;2022-11-15T08:38:24;16.41;61.47
22917;DHT22;11624;53.250;7.456;2022-11-15T08:41:14;16.44;61.42
22917;DHT22;11624;53.250;7.456;2022-11-15T08:44:04;16.20;62.26
22917;DHT22;11624;53.250;7.456;2022-11-15T08:46:51;16.21;62.44
22917;DHT22;11624;53.250;7.456;2022-11-15T08:49:38;16.24;62.39
22917;DHT22;11624;53.250;7.456;2022-11-15T08:52:24;16.22;62.50
22917;DHT22;11624;53.250;7.456;2022-11-15T08:55:11;16.19;62.66
22917;DHT22;11624;53.250;7.456;2022-11-15T08:58:01;16.24;62.61
22917;DHT22;11624;53.250;7.456;2022-11-15T09:00:49;16.31;62.57
22917;DHT22;11624;53.250;7.456;2022-11-15T09:03:36;16.41;62.60
22917;DHT22;11624;53.250;7.456;2022-11-15T09:06:23;16.52;62.53
22917;DHT22;11624;53.250;7.456;2022-11-15T09:09:10;16.63;62.35
22917;DHT22;11624;53.250;7.456;2022-11-15T09:11:56;16.65;62.27
22917;DHT22;11624;53.250;7.456;2022-11-15T09:14:47;16.74;62.12
22917;DHT22;11624;53.250;7.456;2022-11-15T09:17:35;16.80;62.01
22917;DHT22;11624;53.250;7.456;2022-11-15T09:20:22;16.87;62.07
22917;DHT22;11624;53.250;7.456;2022-11-15T09:23:09;16.95;61.81
22917;DHT22;11624;53.250;7.456;2022-11-15T09:26:00;16.93;61.63
22917;DHT22;11624;53.250;7.456;2022-11-15T09:28:48;17.02;61.64
22917;DHT22;11624;53.250;7.456;2022-11-15T09:31:35;17.08;61.61
22917;DHT22;11624;53.250;7.456;2022-11-15T09:34:23;17.10;61.32
22917;DHT22;11624;53.250;7.456;2022-11-15T09:37:10;17.06;61.45
22917;DHT22;11624;53.250;7.456;2022-11-15T09:39:57;17.01;61.50
22917;DHT22;11624;53.250;7.456;2022-11-15T09:43:01;17.04;61.05
22917;DHT22;11624;53.250;7.456;2022-11-15T09:45:57;16.87;61.67
22917;DHT22;11624;53.250;7.456;2022-11-15T09:48:53;16.89;61.86
22917;DHT22;11624;53.250;7.456;2022-11-15T09:51:44;16.98;61.63
22917;DHT22;11624;53.250;7.456;2022-11-15T09:54:23;16.99;61.57
22917;DHT22;11624;53.250;7.456;2022-11-15T09:57:15;17.01;61.78
22917;DHT22;11624;53.250;7.456;2022-11-15T10:00:00;16.95;61.79
22917;DHT22;11624;53.250;7.456;2022-11-15T10:03:06;16.94;62.02
22917;DHT22;11624;53.250;7.456;2022-11-15T10:05:39;16.84;62.78
22917;DHT22;11624;53.250;7.456;2022-11-15T10:08:31;16.89;62.41
22917;DHT22;11624;53.250;7.456;2022-11-15T10:11:07;16.87;62.99
22917;DHT22;11624;53.250;7.456;2022-11-15T10:13:59;16.88;63.11
22917;DHT22;11624;53.250;7.456;2022-11-15T10:19:29;16.88;63.37
22917;DHT22;11624;53.250;7.456;2022-11-15T10:22:08;16.96;63.11
22917;DHT22;11624;53.250;7.456;2022-11-15T10:24:43;17.00;63.22
22917;DHT22;11624;53.250;7.456;2022-11-15T10:27:15;17.04;63.30
22917;DHT22;11624;53.250;7.456;2022-11-15T10:29:45;17.02;63.47
22917;DHT22;11624;53.250;7.456;2022-11-15T10:32:15;16.95;63.63
22917;DHT22;11624;53.250;7.456;2022-11-15T10:34:44;16.93;63.74
22917;DHT22;11624;53.250;7.456;2022-11-15T10:37:12;16.82;64.22
22917;DHT22;11624;53.250;7.456;2022-11-15T10:39:42;16.82;64.36
22917;DHT22;11624;53.250;7.456;2022-11-15T10:42:25;16.69;64.47
22917;DHT22;11624;53.250;7.456;2022-11-15T10:44:54;16.66;64.87
22917;DHT22;11624;53.250;7.456;2022-11-15T10:47:27;16.70;64.72
22917;DHT22;11624;53.250;7.456;2022-11-15T10:50:07;16.66;65.30
22917;DHT22;11624;53.250;7.456;2022-11-15T10:52:36;16.67;65.36
22917;DHT22;11624;53.250;7.456;2022-11-15T10:55:21;16.70;65.12
22917;DHT22;11624;53.250;7.456;2022-11-15T10:57:53;16.67;65.65
22917;DHT22;11624;53.250;7.456;2022-11-15T11:00:32;16.71;65.69
22917;DHT22;11624;53.250;7.456;2022-11-15T11:03:03;16.79;65.76
22917;DHT22;11624;53.250;7.456;2022-11-15T11:05:34;16.78;65.93
22917;DHT22;11624;53.250;7.456;2022-11-15T11:08:22;16.84;65.59
22917;DHT22;11624;53.250;7.456;2022-11-15T11:10:56;16.82;65.66
22917;DHT22;11624;53.250;7.456;2022-11-15T11:13:30;16.89;65.91
22917;DHT22;11624;53.250;7.456;2022-11-15T11:16:15;16.91;65.84
22917;DHT22;11624;53.250;7.456;2022-11-15T11:18:49;17.01;66.08
22917;DHT22;11624;53.250;7.456;2022-11-15T11:21:26;17.00;65.67
22917;DHT22;11624;53.250;7.456;2022-11-15T11:24:12;17.10;65.66
22917;DHT22;11624;53.250;7.456;2022-11-15T11:26:48;17.19;65.64
22917;DHT22;11624;53.250;7.456;2022-11-15T11:29:38;17.24;65.10
22917;DHT22;11624;53.250;7.456;2022-11-15T11:32:22;17.34;64.96
22917;DHT22;11624;53.250;7.456;2022-11-15T11:35:00;17.30;64.93
22917;DHT22;11624;53.250;7.456;2022-11-15T11:37:42;17.30;65.13
22917;DHT22;11624;53.250;7.456;2022-11-15T11:40:20;17.32;64.92
22917;DHT22;11624;53.250;7.456;2022-11-15T11:42:57;17.32;65.04
22917;DHT22;11624;53.250;7.456;2022-11-15T11:45:48;17.32;64.85
22917;DHT22;11624;53.250;7.456;2022-11-15T11:48:32;17.36;65.21
22917;DHT22;11624;53.250;7.456;2022-11-15T11:51:10;17.34;65.57
22917;DHT22;11624;53.250;7.456;2022-11-15T11:53:42;17.65;66.64
22917;DHT22;11624;53.250;7.456;2022-11-15T11:56:21;18.12;66.46
22917;DHT22;11624;53.250;7.456;2022-11-15T11:58:54;18.77;65.21
22917;DHT22;11624;53.250;7.456;2022-11-15T12:01:24;19.27;63.14
22917;DHT22;11624;53.250;7.456;2022-11-15T12:03:56;19.73;60.26
22917;DHT22;11624;53.250;7.456;2022-11-15T12:06:30;20.13;59.28
22917;DHT22;11624;53.250;7.456;2022-11-15T12:09:04;20.24;58.15
22917;DHT22;11624;53.250;7.456;2022-11-15T12:11:38;20.24;57.13
22917;DHT22;11624;53.250;7.456;2022-11-15T12:14:24;20.30;56.66
22917;DHT22;11624;53.250;7.456;2022-11-15T12:16:54;20.22;56.31
22917;DHT22;11624;53.250;7.456;2022-11-15T12:19:24;20.01;55.81
22917;DHT22;11624;53.250;7.456;2022-11-15T12:21:58;19.82;56.16
22917;DHT22;11624;53.250;7.456;2022-11-15T12:24:32;19.83;56.43
22917;DHT22;11624;53.250;7.456;2022-11-15T12:27:06;19.62;57.31
22917;DHT22;11624;53.250;7.456;2022-11-15T12:29:38;19.60;58.31
22917;DHT22;11624;53.250;7.456;2022-11-15T12:32:21;19.92;58.03
22917;DHT22;11624;53.250;7.456;2022-11-15T12:34:53;19.90;56.76
22917;DHT22;11624;53.250;7.456;2022-11-15T12:37:50;19.68;56.88
22917;DHT22;11624;53.250;7.456;2022-11-15T12:40:27;19.39;57.16
22917;DHT22;11624;53.250;7.456;2022-11-15T12:46:21;19.23;58.53
22917;DHT22;11624;53.250;7.456;2022-11-15T12:48:55;19.45;58.67
22917;DHT22;11624;53.250;7.456;2022-11-15T12:55:01;19.62;55.46
22917;DHT22;11624;53.250;7.456;2022-11-15T12:57:38;19.73;57.31
22917;DHT22;11624;53.250;7.456;2022-11-15T13:03:24;21.57;53.33
22917;DHT22;11624;53.250;7.456;2022-11-15T13:05:58;21.73;49.47
22917;DHT22;11624;53.250;7.456;2022-11-15T13:08:50;21.50;49.24
22917;DHT22;11624;53.250;7.456;2022-11-15T13:11:50;21.21;50.27
22917;DHT22;11624;53.250;7.456;2022-11-15T13:14:42;21.42;51.82
22917;DHT22;11624;53.250;7.456;2022-11-15T13:17:36;21.82;49.89
22917;DHT22;11624;53.250;7.456;2022-11-15T13:20:23;21.87;47.31
22917;DHT22;11624;53.250;7.456;2022-11-15T13:23:00;22.04;46.60
22917;DHT22;11624;53.250;7.456;2022-11-15T13:25:52;21.84;45.38
22917;DHT22;11624;53.250;7.456;2022-11-15T13:28:30;21.84;45.78
22917;DHT22;11624;53.250;7.456;2022-11-15T13:31:03;21.67;45.32
22917;DHT22;11624;53.250;7.456;2022-11-15T13:33:43;21.38;44.99
22917;DHT22;11624;53.250;7.456;2022-11-15T13:36:18;21.38;45.37
22917;DHT22;11624;53.250;7.456;2022-11-15T13:38:55;20.93;44.84
22917;DHT22;11624;53.250;7.456;2022-11-15T13:41:27;20.44;45.98
22917;DHT22;11624;53.250;7.456;2022-11-15T13:43:56;20.03;47.08
22917;DHT22;11624;53.250;7.456;2022-11-15T13:46:27;19.77;47.91
22917;DHT22;11624;53.250;7.456;2022-11-15T13:48:57;19.61;48.42
22917;DHT22;11624;53.250;7.456;2022-11-15T13:51:42;19.44;48.66
22917;DHT22;11624;53.250;7.456;2022-11-15T13:54:17;19.27;49.46
22917;DHT22;11624;53.250;7.456;2022-11-15T13:56:56;19.18;50.05
22917;DHT22;11624;53.250;7.456;2022-11-15T13:59:26;19.18;50.44
22917;DHT22;11624;53.250;7.456;2022-11-15T14:01:57;19.35;50.64
22917;DHT22;11624;53.250;7.456;2022-11-15T14:04:29;19.56;50.40
22917;DHT22;11624;53.250;7.456;2022-11-15T14:07:02;19.77;50.27
22917;DHT22;11624;53.250;7.456;2022-11-15T14:09:36;19.89;49.64
22917;DHT22;11624;53.250;7.456;2022-11-15T14:12:24;20.00;49.65
22917;DHT22;11624;53.250;7.456;2022-11-15T14:14:52;20.16;49.37
22917;DHT22;11624;53.250;7.456;2022-11-15T14:17:34;20.19;48.73
22917;DHT22;11624;53.250;7.456;2022-11-15T14:20:19;20.18;48.70
22917;DHT22;11624;53.250;7.456;2022-11-15T14:22:54;20.04;48.76
22917;DHT22;11624;53.250;7.456;2022-11-15T14:25:24;19.88;49.27
22917;DHT22;11624;53.250;7.456;2022-11-15T14:28:16;19.77;49.12
22917;DHT22;11624;53.250;7.456;2022-11-15T14:30:45;19.65;49.62
22917;DHT22;11624;53.250;7.456;2022-11-15T14:33:20;19.57;49.69
22917;DHT22;11624;53.250;7.456;2022-11-15T14:35:49;19.54;49.66
22917;DHT22;11624;53.250;7.456;2022-11-15T14:38:20;19.42;49.57
22917;DHT22;11624;53.250;7.456;2022-11-15T14:40:48;19.12;49.52
22917;DHT22;11624;53.250;7.456;2022-11-15T14:43:17;19.05;49.70
22917;DHT22;11624;53.250;7.456;2022-11-15T14:45:45;18.95;49.72
22917;DHT22;11624;53.250;7.456;2022-11-15T14:48:13;18.86;49.88
22917;DHT22;11624;53.250;7.456;2022-11-15T14:50:42;18.70;50.04
22917;DHT22;11624;53.250;7.456;2022-11-15T14:53:12;18.64;50.25
22917;DHT22;11624;53.250;7.456;2022-11-15T14:55:43;18.52;50.51
22917;DHT22;11624;53.250;7.456;2022-11-15T14:58:11;18.42;50.72
22917;DHT22;11624;53.250;7.456;2022-11-15T15:00:41;18.33;50.90
22917;DHT22;11624;53.250;7.456;2022-11-15T15:03:09;18.13;51.39
22917;DHT22;11624;53.250;7.456;2022-11-15T15:05:39;17.99;51.68
22917;DHT22;11624;53.250;7.456;2022-11-15T15:08:08;17.99;51.62
22917;DHT22;11624;53.250;7.456;2022-11-15T15:10:38;17.87;51.91
22917;DHT22;11624;53.250;7.456;2022-11-15T15:13:16;17.73;52.14
22917;DHT22;11624;53.250;7.456;2022-11-15T15:15:45;17.67;52.40
22917;DHT22;11624;53.250;7.456;2022-11-15T15:18:14;17.62;52.39
22917;DHT22;11624;53.250;7.456;2022-11-15T15:20:43;17.54;52.60
22917;DHT22;11624;53.250;7.456;2022-11-15T15:23:15;17.41;52.82
22917;DHT22;11624;53.250;7.456;2022-11-15T15:25:45;17.28;53.47
22917;DHT22;11624;53.250;7.456;2022-11-15T15:28:16;17.22;53.46
22917;DHT22;11624;53.250;7.456;2022-11-15T15:30:45;17.18;53.31
22917;DHT22;11624;53.250;7.456;2022-11-15T15:33:13;17.11;53.33
22917;DHT22;11624;53.250;7.456;2022-11-15T15:35:42;17.00;53.42
22917;DHT22;11624;53.250;7.456;2022-11-15T15:38:11;16.90;53.68
22917;DHT22;11624;53.250;7.456;2022-11-15T15:40:40;16.78;53.79
22917;DHT22;11624;53.250;7.456;2022-11-15T15:43:08;16.70;53.89
22917;DHT22;11624;53.250;7.456;2022-11-15T15:45:40;16.59;54.09
22917;DHT22;11624;53.250;7.456;2022-11-15T15:48:11;16.48;54.14
22917;DHT22;11624;53.250;7.456;2022-11-15T15:50:40;16.37;54.42
22917;DHT22;11624;53.250;7.456;2022-11-15T15:53:11;16.28;54.55
22917;DHT22;11624;53.250;7.456;2022-11-15T15:55:39;16.18;54.76
22917;DHT22;11624;53.250;7.456;2022-11-15T15:58:08;16.08;54.87
22917;DHT22;11624;53.250;7.456;2022-11-15T16:00:38;15.98;55.07
22917;DHT22;11624;53.250;7.456;2022-11-15T16:03:06;15.88;55.32
22917;DHT22;11624;53.250;7.456;2022-11-15T16:05:34;15.77;55.52
22917;DHT22;11624;53.250;7.456;2022-11-15T16:08:02;15.71;55.67
22917;DHT22;11624;53.250;7.456;2022-11-15T16:10:32;15.61;55.85
22917;DHT22;11624;53.250;7.456;2022-11-15T16:13:01;15.56;56.11
22917;DHT22;11624;53.250;7.456;2022-11-15T16:15:31;15.47;56.16
22917;DHT22;11624;53.250;7.456;2022-11-15T16:18:01;15.40;56.37
22917;DHT22;11624;53.250;7.456;2022-11-15T16:20:33;15.34;56.50
22917;DHT22;11624;53.250;7.456;2022-11-15T16:23:03;15.27;56.82
22917;DHT22;11624;53.250;7.456;2022-11-15T16:25:40;15.18;56.89
22917;DHT22;11624;53.250;7.456;2022-11-15T16:28:18;15.13;56.68
22917;DHT22;11624;53.250;7.456;2022-11-15T16:30:46;15.09;57.16
22917;DHT22;11624;53.250;7.456;2022-11-15T16:33:23;15.03;57.39
22917;DHT22;11624;53.250;7.456;2022-11-15T16:35:52;14.97;57.52
22917;DHT22;11624;53.250;7.456;2022-11-15T16:38:20;14.91;57.77
22917;DHT22;11624;53.250;7.456;2022-11-15T16:40:48;14.86;57.88
22917;DHT22;11624;53.250;7.456;2022-11-15T16:43:17;14.83;58.09
22917;DHT22;11624;53.250;7.456;2022-11-15T16:45:45;14.81;58.25
22917;DHT22;11624;53.250;7.456;2022-11-15T16:48:21;14.79;58.11
22917;DHT22;11624;53.250;7.456;2022-11-15T16:50:54;14.74;58.52
22917;DHT22;11624;53.250;7.456;2022-11-15T16:53:23;14.71;58.73
22917;DHT22;11624;53.250;7.456;2022-11-15T16:55:51;14.74;58.58
22917;DHT22;11624;53.250;7.456;2022-11-15T16:58:19;14.74;58.54
22917;DHT22;11624;53.250;7.456;2022-11-15T17:00:50;14.71;58.57
22917;DHT22;11624;53.250;7.456;2022-11-15T17:03:19;14.68;58.58
22917;DHT22;11624;53.250;7.456;2022-11-15T17:05:47;14.67;58.50
22917;DHT22;11624;53.250;7.456;2022-11-15T17:08:17;14.65;58.51
22917;DHT22;11624;53.250;7.456;2022-11-15T17:10:46;14.58;58.59
22917;DHT22;11624;53.250;7.456;2022-11-15T17:13:15;14.57;58.62
22917;DHT22;11624;53.250;7.456;2022-11-15T17:15:43;14.53;58.72
22917;DHT22;11624;53.250;7.456;2022-11-15T17:18:12;14.47;58.77
22917;DHT22;11624;53.250;7.456;2022-11-15T17:20:41;14.41;58.96
22917;DHT22;11624;53.250;7.456;2022-11-15T17:23:12;14.38;58.90